createdAt,value
2023-05-22T00:01:12.470Z,11.90
2023-05-22T00:03:39.352Z,11.87
2023-05-22T00:06:10.342Z,11.81
2023-05-22T00:08:37.264Z,11.80
2023-05-22T00:11:04.739Z,11.75
2023-05-22T00:13:31.848Z,11.70
2023-05-22T00:15:58.524Z,11.70
2023-05-22T00:18:27.342Z,11.65
2023-05-22T00:20:54.477Z,11.64
2023-05-22T00:23:22.110Z,11.62
2023-05-22T00:25:50.036Z,11.59
2023-05-22T00:28:16.786Z,11.59
2023-05-22T00:30:43.508Z,11.55
2023-05-22T00:33:10.270Z,11.56
2023-05-22T00:35:37.014Z,11.54
2023-05-22T00:38:05.772Z,11.51
2023-05-22T00:40:32.790Z,11.38
2023-05-22T00:43:00.658Z,11.40
2023-05-22T00:45:28.076Z,11.30
2023-05-22T00:47:54.948Z,11.29
2023-05-22T00:50:21.737Z,11.26
2023-05-22T00:52:48.658Z,11.33
2023-05-22T00:55:16.931Z,11.36
2023-05-22T00:57:43.876Z,11.31
2023-05-22T01:00:11.491Z,11.31
2023-05-22T01:02:38.456Z,11.30
2023-05-22T01:05:11.579Z,11.16
2023-05-22T01:07:38.267Z,11.26
2023-05-22T01:10:06.452Z,11.26
2023-05-22T01:13:01.131Z,11.20
2023-05-22T01:15:33.514Z,11.21
2023-05-22T01:18:22.671Z,11.16
2023-05-22T01:21:06.472Z,11.10
2023-05-22T01:23:36.789Z,11.07
2023-05-22T01:26:34.334Z,11.07
2023-05-22T01:29:06.869Z,11.05
2023-05-22T01:31:38.365Z,10.78
2023-05-22T01:34:07.512Z,10.87
2023-05-22T01:36:37.249Z,10.75
2023-05-22T01:39:06.784Z,10.83
2023-05-22T01:41:34.385Z,10.76
2023-05-22T01:44:02.359Z,10.64
2023-05-22T01:46:30.549Z,10.59
2023-05-22T01:48:58.244Z,10.55
2023-05-22T01:51:34.143Z,10.50
2023-05-22T01:54:09.888Z,10.42
2023-05-22T01:56:44.426Z,10.34
2023-05-22T01:59:21.488Z,10.29
2023-05-22T02:01:51.886Z,10.17
2023-05-22T02:04:23.319Z,10.13
2023-05-22T02:06:53.881Z,10.13
2023-05-22T02:09:23.597Z,9.95
2023-05-22T02:11:51.440Z,10.05
2023-05-22T02:14:18.790Z,9.99
2023-05-22T02:16:47.864Z,9.95
2023-05-22T02:19:15.467Z,9.80
2023-05-22T02:21:42.790Z,9.89
2023-05-22T02:24:09.985Z,9.88
2023-05-22T02:26:37.850Z,9.88
2023-05-22T02:29:04.952Z,9.80
2023-05-22T02:31:31.729Z,9.72
2023-05-22T02:33:58.652Z,9.74
2023-05-22T02:36:26.418Z,9.68
2023-05-22T02:38:53.154Z,9.58
2023-05-22T02:41:19.970Z,9.51
2023-05-22T02:43:46.670Z,9.59
2023-05-22T02:46:13.544Z,9.54
2023-05-22T02:48:40.872Z,9.54
2023-05-22T02:51:07.645Z,9.54
2023-05-22T02:53:35.573Z,9.54
2023-05-22T02:56:03.445Z,9.50
2023-05-22T02:58:30.174Z,9.47
2023-05-22T03:00:57.208Z,9.54
2023-05-22T03:03:25.703Z,9.56
2023-05-22T03:05:58.616Z,9.57
2023-05-22T03:08:28.522Z,9.36
2023-05-22T03:10:59.847Z,9.59
2023-05-22T03:13:26.692Z,9.59
2023-05-22T03:15:53.538Z,9.61
2023-05-22T03:18:20.433Z,9.54
2023-05-22T03:20:47.280Z,9.57
2023-05-22T03:23:14.063Z,9.59
2023-05-22T03:25:41.904Z,9.61
2023-05-22T03:28:08.693Z,9.59
2023-05-22T03:30:36.482Z,9.64
2023-05-22T03:33:03.311Z,9.86
2023-05-22T03:35:29.973Z,10.06
2023-05-22T03:37:56.824Z,10.34
2023-05-22T03:40:23.591Z,10.56
2023-05-22T03:42:50.305Z,10.93
2023-05-22T03:45:17.115Z,11.48
2023-05-22T03:47:43.888Z,11.86
2023-05-22T03:50:11.286Z,12.24
2023-05-22T03:52:38.448Z,12.38
2023-05-22T03:55:06.503Z,12.70
2023-05-22T03:57:33.245Z,12.73
2023-05-22T04:00:10.038Z,13.04
2023-05-22T04:02:39.580Z,13.31
2023-05-22T04:05:08.387Z,13.45
2023-05-22T04:07:35.205Z,13.53
2023-05-22T04:10:03.697Z,13.63
2023-05-22T04:12:30.463Z,13.51
2023-05-22T04:14:57.163Z,13.65
2023-05-22T04:17:24.070Z,13.78
2023-05-22T04:19:51.027Z,13.98
2023-05-22T04:22:17.822Z,14.22
2023-05-22T04:24:44.636Z,14.41
2023-05-22T04:27:11.394Z,14.48
2023-05-22T04:29:38.177Z,14.56
2023-05-22T04:32:06.492Z,14.57
2023-05-22T04:34:33.921Z,15.01
2023-05-22T04:37:00.718Z,15.03
2023-05-22T04:39:27.607Z,15.36
2023-05-22T04:41:54.628Z,15.75
2023-05-22T04:44:24.119Z,16.24
2023-05-22T04:46:51.361Z,16.47
2023-05-22T04:49:18.320Z,16.24
2023-05-22T04:51:45.044Z,16.19
2023-05-22T04:54:11.917Z,16.02
2023-05-22T04:56:38.639Z,16.24
2023-05-22T04:59:09.487Z,16.47
2023-05-22T05:01:38.334Z,16.53
2023-05-22T05:04:05.156Z,16.82
2023-05-22T05:06:32.065Z,17.10
2023-05-22T05:08:59.087Z,17.13
2023-05-22T05:11:26.288Z,17.23
2023-05-22T05:13:53.012Z,17.30
2023-05-22T05:16:19.872Z,17.45
2023-05-22T05:18:46.742Z,17.69
2023-05-22T05:21:13.756Z,18.24
2023-05-22T05:23:43.101Z,18.76
2023-05-22T05:26:09.919Z,18.64
2023-05-22T05:28:40.471Z,18.52
2023-05-22T05:31:07.985Z,18.69
2023-05-22T05:33:34.704Z,18.83
2023-05-22T05:36:01.423Z,18.90
2023-05-22T05:38:28.275Z,18.79
2023-05-22T05:40:55.159Z,19.15
2023-05-22T05:43:22.208Z,19.34
2023-05-22T05:45:49.019Z,19.44
2023-05-22T05:48:15.724Z,19.73
2023-05-22T05:50:42.832Z,19.40
2023-05-22T05:53:09.657Z,19.10
2023-05-22T05:55:36.373Z,19.11
2023-05-22T05:58:03.069Z,19.03
2023-05-22T06:00:29.915Z,18.96
2023-05-22T06:02:56.835Z,19.07
2023-05-22T06:05:23.719Z,19.00
2023-05-22T06:07:50.728Z,19.15
2023-05-22T06:10:17.519Z,19.59
2023-05-22T06:12:44.406Z,19.70
2023-05-22T06:15:13.337Z,19.79
2023-05-22T06:17:40.284Z,20.02
2023-05-22T06:20:08.469Z,20.01
2023-05-22T06:22:35.176Z,20.06
2023-05-22T06:25:02.014Z,19.98
2023-05-22T06:27:29.019Z,20.10
2023-05-22T06:29:56.613Z,20.18
2023-05-22T06:32:23.661Z,20.03
2023-05-22T06:34:50.566Z,20.13
2023-05-22T06:37:17.694Z,20.08
2023-05-22T06:39:44.575Z,20.01
2023-05-22T06:42:11.408Z,19.65
2023-05-22T06:44:40.169Z,19.26
2023-05-22T06:47:07.180Z,19.15
2023-05-22T06:49:33.966Z,19.23
2023-05-22T06:52:01.471Z,19.17
2023-05-22T06:54:30.796Z,18.86
2023-05-22T06:56:57.747Z,18.57
2023-05-22T06:59:24.508Z,18.60
2023-05-22T07:01:51.609Z,18.88
2023-05-22T07:04:18.488Z,18.92
2023-05-22T07:06:48.843Z,19.06
2023-05-22T07:09:16.061Z,19.24
2023-05-22T07:11:44.080Z,19.56
2023-05-22T07:14:12.782Z,19.59
2023-05-22T07:16:40.707Z,19.56
2023-05-22T07:19:08.940Z,19.70
2023-05-22T07:21:36.311Z,19.70
2023-05-22T07:24:08.396Z,19.55
2023-05-22T07:26:36.399Z,19.48
2023-05-22T07:29:03.679Z,19.51
2023-05-22T07:31:34.586Z,19.24
2023-05-22T07:34:01.709Z,19.10
2023-05-22T07:36:28.456Z,18.95
2023-05-22T07:38:55.281Z,18.94
2023-05-22T07:41:22.996Z,19.19
2023-05-22T07:43:50.308Z,19.27
2023-05-22T07:46:17.186Z,19.25
2023-05-22T07:48:44.197Z,19.19
2023-05-22T07:51:10.984Z,19.36
2023-05-22T07:53:37.745Z,19.69
2023-05-22T07:56:04.686Z,19.65
2023-05-22T07:58:31.599Z,19.93
2023-05-22T08:00:58.566Z,19.86
2023-05-22T08:03:25.661Z,19.79
2023-05-22T08:05:52.552Z,19.35
2023-05-22T08:08:19.555Z,19.35
2023-05-22T08:11:02.368Z,19.33
2023-05-22T08:13:29.577Z,18.96
2023-05-22T08:16:00.253Z,18.80
2023-05-22T08:18:29.530Z,18.97
2023-05-22T08:20:56.845Z,18.75
2023-05-22T08:23:23.620Z,18.44
2023-05-22T08:25:50.450Z,18.19
2023-05-22T08:28:17.526Z,18.20
2023-05-22T08:30:44.282Z,18.18
2023-05-22T08:33:12.459Z,18.04
2023-05-22T08:35:39.843Z,17.90
2023-05-22T08:38:06.693Z,17.75
2023-05-22T08:40:38.686Z,17.70
2023-05-22T08:43:06.914Z,17.73
2023-05-22T08:45:34.610Z,17.85
2023-05-22T08:48:06.434Z,17.94
2023-05-22T08:50:37.249Z,17.98
2023-05-22T08:53:08.247Z,18.15
2023-05-22T08:55:35.350Z,18.23
2023-05-22T08:58:02.921Z,18.13
2023-05-22T09:00:30.354Z,18.40
2023-05-22T09:02:58.120Z,18.22
2023-05-22T09:05:26.958Z,18.37
2023-05-22T09:08:02.716Z,18.41
2023-05-22T09:10:36.072Z,18.47
2023-05-22T09:13:11.561Z,18.50
2023-05-22T09:15:38.704Z,18.55
2023-05-22T09:18:06.928Z,18.24
2023-05-22T09:20:39.326Z,18.09
2023-05-22T09:23:18.168Z,17.90
2023-05-22T09:25:45.735Z,17.97
2023-05-22T09:28:13.378Z,17.70
2023-05-22T09:30:42.853Z,17.94
2023-05-22T09:33:13.131Z,18.03
2023-05-22T09:35:40.191Z,18.09
2023-05-22T09:38:07.113Z,18.19
2023-05-22T09:40:35.328Z,18.19
2023-05-22T09:43:06.829Z,17.99
2023-05-22T09:45:36.249Z,17.95
2023-05-22T09:48:06.973Z,18.15
2023-05-22T09:50:33.977Z,18.47
2023-05-22T09:53:03.599Z,18.49
2023-05-22T09:55:31.136Z,18.35
2023-05-22T09:58:00.043Z,18.29
2023-05-22T10:00:28.264Z,18.34
2023-05-22T10:03:09.770Z,18.29
2023-05-22T10:05:39.425Z,18.37
2023-05-22T10:08:11.279Z,18.46
2023-05-22T10:10:39.540Z,18.40
2023-05-22T10:13:08.103Z,18.46
2023-05-22T10:15:35.754Z,18.42
2023-05-22T10:18:03.300Z,18.52
2023-05-22T10:20:31.035Z,18.45
2023-05-22T10:22:57.809Z,18.31
2023-05-22T10:25:25.933Z,18.14
2023-05-22T10:27:54.030Z,18.21
2023-05-22T10:30:46.668Z,18.22
2023-05-22T10:33:26.036Z,18.16
2023-05-22T10:36:05.006Z,17.74
2023-05-22T10:39:01.431Z,18.08
2023-05-22T10:41:28.591Z,18.16
2023-05-22T10:43:57.201Z,18.16
2023-05-22T10:46:24.230Z,18.43
2023-05-22T10:48:54.388Z,18.45
2023-05-22T10:51:23.439Z,18.53
2023-05-22T10:54:02.670Z,18.48
2023-05-22T10:56:36.404Z,18.55
2023-05-22T10:59:06.294Z,18.46
2023-05-22T11:01:38.560Z,18.36
2023-05-22T11:04:07.108Z,18.31
2023-05-22T11:06:37.765Z,18.38
2023-05-22T11:09:31.560Z,18.48
2023-05-22T11:12:17.977Z,18.53
2023-05-22T11:14:57.072Z,18.61
2023-05-22T11:17:28.039Z,18.56
2023-05-22T11:20:05.805Z,18.50
2023-05-22T11:22:41.660Z,18.49
2023-05-22T11:25:19.164Z,18.68
2023-05-22T11:27:47.848Z,18.86
2023-05-22T11:30:16.536Z,18.77
2023-05-22T11:32:45.387Z,18.55
2023-05-22T11:35:19.437Z,18.52
2023-05-22T11:37:47.601Z,18.43
2023-05-22T11:40:17.066Z,18.57
2023-05-22T11:42:44.454Z,18.62
2023-05-22T11:45:11.805Z,18.79
2023-05-22T11:47:39.402Z,18.84
2023-05-22T11:50:09.139Z,18.76
2023-05-22T11:52:38.294Z,18.83
2023-05-22T11:55:06.105Z,18.89
2023-05-22T11:57:33.313Z,18.85
2023-05-22T12:00:00.063Z,18.99
2023-05-22T12:02:27.372Z,19.09
2023-05-22T12:04:58.335Z,18.87
2023-05-22T12:07:29.425Z,18.87
2023-05-22T12:09:57.487Z,18.95
2023-05-22T12:12:27.346Z,18.87
2023-05-22T12:14:54.224Z,19.17
2023-05-22T12:17:20.881Z,19.20
2023-05-22T12:19:47.870Z,19.04
2023-05-22T12:22:14.785Z,19.14
2023-05-22T12:24:42.796Z,19.27
2023-05-22T12:27:10.921Z,19.20
2023-05-22T12:29:38.974Z,19.26
2023-05-22T12:32:08.859Z,19.19
2023-05-22T12:34:36.815Z,19.24
2023-05-22T12:37:03.708Z,19.39
2023-05-22T12:39:30.691Z,19.20
2023-05-22T12:41:57.463Z,19.03
2023-05-22T12:44:24.132Z,19.05
2023-05-22T12:46:52.556Z,19.09
2023-05-22T12:49:20.324Z,19.27
2023-05-22T12:51:47.078Z,19.22
2023-05-22T12:54:15.515Z,19.20
2023-05-22T12:56:42.390Z,19.29
2023-05-22T12:59:13.551Z,19.30
2023-05-22T13:01:41.433Z,19.15
2023-05-22T13:04:08.202Z,19.17
2023-05-22T13:06:35.186Z,19.18
2023-05-22T13:09:01.980Z,19.30
2023-05-22T13:11:31.542Z,19.33
2023-05-22T13:14:05.623Z,19.31
2023-05-22T13:16:32.409Z,19.38
2023-05-22T13:19:03.834Z,19.66
2023-05-22T13:21:31.718Z,19.73
2023-05-22T13:23:58.614Z,19.69
2023-05-22T13:26:26.394Z,19.68
2023-05-22T13:28:53.198Z,19.53
2023-05-22T13:31:28.649Z,19.47
2023-05-22T13:34:01.597Z,19.37
2023-05-22T13:36:50.792Z,19.20
2023-05-22T13:39:39.445Z,19.37
2023-05-22T13:42:07.668Z,19.51
2023-05-22T13:44:36.665Z,19.49
2023-05-22T13:47:06.649Z,19.54
2023-05-22T13:49:33.322Z,19.23
2023-05-22T13:52:00.521Z,19.18
2023-05-22T13:54:27.831Z,19.50
2023-05-22T13:56:56.829Z,19.63
2023-05-22T13:59:28.252Z,19.64
2023-05-22T14:01:55.207Z,19.50
2023-05-22T14:04:21.972Z,19.65
2023-05-22T14:06:48.723Z,19.61
2023-05-22T14:09:15.550Z,19.54
2023-05-22T14:11:42.324Z,19.57
2023-05-22T14:26:53.255Z,19.12
2023-05-22T14:29:27.228Z,19.62
2023-05-22T14:32:01.475Z,19.44
2023-05-22T14:34:28.361Z,19.45
2023-05-22T14:36:56.914Z,19.31
2023-05-22T14:39:27.514Z,19.18
2023-05-22T14:41:58.889Z,19.08
2023-05-22T14:44:26.630Z,19.02
2023-05-22T14:46:54.780Z,19.02
2023-05-22T14:49:21.594Z,19.08
2023-05-22T14:51:49.547Z,18.98
2023-05-22T14:54:20.725Z,18.90
2023-05-22T14:56:48.168Z,18.77
2023-05-22T14:59:15.594Z,18.68
2023-05-22T15:01:42.422Z,18.67
2023-05-22T15:04:18.505Z,18.58
2023-05-22T15:06:45.424Z,18.59
2023-05-22T15:09:12.205Z,18.57
2023-05-22T15:11:41.152Z,18.65
2023-05-22T15:14:07.946Z,18.65
2023-05-22T15:16:34.682Z,18.55
2023-05-22T15:19:01.520Z,18.68
2023-05-22T15:21:28.443Z,18.53
2023-05-22T15:23:56.532Z,18.57
2023-05-22T15:26:23.323Z,18.55
2023-05-22T15:28:50.192Z,18.68
2023-05-22T15:31:17.059Z,18.78
2023-05-22T15:33:43.986Z,18.79
2023-05-22T15:36:10.960Z,18.66
2023-05-22T15:38:37.690Z,18.59
2023-05-22T15:41:05.744Z,18.55
2023-05-22T15:43:32.565Z,18.47
2023-05-22T15:46:00.028Z,18.37
2023-05-22T15:48:26.814Z,18.35
2023-05-22T15:50:53.476Z,18.36
2023-05-22T15:53:22.158Z,18.19
2023-05-22T15:55:49.757Z,18.08
2023-05-22T15:58:16.712Z,18.07
2023-05-22T16:00:44.009Z,18.18
2023-05-22T16:03:11.397Z,18.09
2023-05-22T16:05:41.777Z,17.73
2023-05-22T16:08:10.711Z,18.03
2023-05-22T16:10:37.595Z,17.95
2023-05-22T16:13:10.636Z,17.86
2023-05-22T16:15:40.012Z,17.90
2023-05-22T16:18:07.564Z,17.87
2023-05-22T16:20:35.685Z,17.82
2023-05-22T16:23:02.581Z,17.67
2023-05-22T16:25:29.333Z,17.69
2023-05-22T16:28:00.148Z,17.70
2023-05-22T16:30:27.194Z,17.37
2023-05-22T16:32:57.015Z,17.78
2023-05-22T16:35:26.363Z,17.78
2023-05-22T16:37:54.988Z,17.77
2023-05-22T16:40:22.674Z,17.37
2023-05-22T16:42:52.174Z,17.34
2023-05-22T16:45:23.691Z,17.56
2023-05-22T16:48:00.406Z,17.40
2023-05-22T16:50:30.540Z,17.62
2023-05-22T16:52:57.525Z,17.12
2023-05-22T16:55:24.394Z,17.14
2023-05-22T16:57:53.574Z,17.30
2023-05-22T17:00:25.391Z,17.51
2023-05-22T17:02:52.928Z,17.47
2023-05-22T17:05:20.637Z,17.43
2023-05-22T17:07:47.548Z,17.44
2023-05-22T17:10:14.296Z,17.12
2023-05-22T17:12:41.241Z,17.33
2023-05-22T17:15:16.087Z,17.26
2023-05-22T17:17:43.132Z,17.19
2023-05-22T17:20:13.837Z,17.09
2023-05-22T17:22:40.776Z,16.96
2023-05-22T17:25:08.291Z,16.95
2023-05-22T17:27:36.609Z,16.86
2023-05-22T17:30:08.617Z,16.89
2023-05-22T17:32:43.988Z,16.80
2023-05-22T17:35:11.364Z,16.66
2023-05-22T17:37:40.019Z,16.75
2023-05-22T17:40:09.505Z,16.67
2023-05-22T17:42:36.403Z,16.56
2023-05-22T17:45:03.127Z,16.53
2023-05-22T17:47:29.994Z,16.37
2023-05-22T17:49:56.883Z,16.41
2023-05-22T17:52:24.090Z,16.33
2023-05-22T17:54:54.920Z,16.23
2023-05-22T17:57:26.664Z,16.22
2023-05-22T17:59:53.360Z,16.17
2023-05-22T18:02:20.480Z,16.08
2023-05-22T18:04:48.652Z,16.06
2023-05-22T18:07:17.317Z,16.00
2023-05-22T18:09:44.128Z,15.87
2023-05-22T18:12:17.894Z,15.75
2023-05-22T18:15:05.585Z,15.69
2023-05-22T18:17:33.188Z,15.62
2023-05-22T18:20:01.138Z,15.42
2023-05-22T18:22:27.847Z,15.47
2023-05-22T18:24:54.588Z,15.42
2023-05-22T18:27:27.131Z,15.31
2023-05-22T18:29:56.146Z,15.25
2023-05-22T18:32:30.373Z,15.19
2023-05-22T18:34:58.809Z,14.99
2023-05-22T18:37:29.461Z,15.03
2023-05-22T18:39:56.604Z,14.94
2023-05-22T18:42:25.505Z,14.84
2023-05-22T18:44:53.121Z,14.84
2023-05-22T18:47:29.663Z,14.77
2023-05-22T18:49:56.650Z,14.72
2023-05-22T18:52:23.431Z,14.58
2023-05-22T18:54:50.308Z,14.61
2023-05-22T18:57:17.156Z,14.58
2023-05-22T18:59:43.973Z,14.51
2023-05-22T19:02:11.231Z,14.51
2023-05-22T19:04:38.108Z,14.48
2023-05-22T19:07:05.231Z,14.44
2023-05-22T19:09:32.002Z,14.33
2023-05-22T19:12:01.395Z,14.25
2023-05-22T19:14:29.780Z,14.18
2023-05-22T19:17:02.945Z,13.87
2023-05-22T19:19:30.586Z,14.04
2023-05-22T19:21:57.319Z,13.99
2023-05-22T19:24:24.036Z,13.91
2023-05-22T19:26:50.872Z,13.89
2023-05-22T19:29:17.661Z,13.86
2023-05-22T19:31:45.327Z,13.83
2023-05-22T19:34:12.186Z,13.77
2023-05-22T19:36:38.910Z,13.77
2023-05-22T19:39:05.644Z,13.69
2023-05-22T19:41:32.396Z,13.60
2023-05-22T19:43:59.091Z,13.59
2023-05-22T19:46:25.959Z,13.57
2023-05-22T19:48:53.208Z,13.33
2023-05-22T19:51:19.997Z,13.43
2023-05-22T19:53:46.724Z,13.45
2023-05-22T19:56:13.464Z,13.39
2023-05-22T19:58:40.146Z,13.35
2023-05-22T20:01:06.893Z,13.18
2023-05-22T20:03:34.219Z,13.20
2023-05-22T20:06:01.043Z,13.16
2023-05-22T20:08:28.679Z,13.16
2023-05-22T20:10:55.453Z,13.14
2023-05-22T20:13:22.175Z,13.09
2023-05-22T20:15:51.404Z,12.98
2023-05-22T20:18:18.764Z,12.91
2023-05-22T20:20:45.624Z,12.93
2023-05-22T20:23:12.342Z,12.83
2023-05-22T20:25:39.337Z,12.84
2023-05-22T20:28:06.600Z,12.77
2023-05-22T20:30:33.523Z,12.78
2023-05-22T20:33:01.256Z,12.82
2023-05-22T20:35:30.704Z,12.84
2023-05-22T20:38:02.639Z,12.67
2023-05-22T20:40:32.507Z,12.70
2023-05-22T20:43:02.570Z,12.87
2023-05-22T20:45:32.941Z,12.82
2023-05-22T20:47:59.764Z,12.83
2023-05-22T20:50:27.355Z,12.77
2023-05-22T20:52:54.320Z,12.72
2023-05-22T20:55:21.081Z,12.69
2023-05-22T20:57:47.898Z,12.67
2023-05-22T21:00:14.910Z,12.68
2023-05-22T21:02:41.824Z,12.56
2023-05-22T21:05:09.065Z,12.53
2023-05-22T21:07:35.898Z,12.53
2023-05-22T21:10:03.148Z,12.48
2023-05-22T21:12:30.064Z,12.46
2023-05-22T21:14:56.913Z,12.36
2023-05-22T21:17:25.013Z,12.35
2023-05-22T21:19:52.016Z,12.31
2023-05-22T21:22:18.858Z,12.25
2023-05-22T21:24:45.649Z,12.04
2023-05-22T21:27:12.582Z,11.91
2023-05-22T21:29:39.316Z,11.96
2023-05-22T21:32:06.495Z,11.69
2023-05-22T21:34:33.218Z,11.78
2023-05-22T21:37:00.008Z,11.69
2023-05-22T21:39:26.717Z,11.73
2023-05-22T21:41:53.458Z,11.68
2023-05-22T21:44:20.165Z,11.62
2023-05-22T21:46:47.081Z,11.51
2023-05-22T21:49:13.928Z,11.56
2023-05-22T21:51:40.637Z,11.43
2023-05-22T21:54:07.462Z,11.49
2023-05-22T21:56:34.241Z,11.36
2023-05-22T21:59:01.121Z,11.19
2023-05-22T22:01:27.997Z,11.30
2023-05-22T22:03:55.808Z,11.28
2023-05-22T22:06:22.706Z,11.24
2023-05-22T22:08:49.483Z,11.22
2023-05-22T22:11:16.306Z,11.20
2023-05-22T22:13:43.121Z,11.28
2023-05-22T22:16:09.879Z,11.15
2023-05-22T22:18:37.725Z,11.07
2023-05-22T22:21:04.748Z,11.00
2023-05-22T22:23:31.584Z,10.71
2023-05-22T22:25:58.376Z,10.88
2023-05-22T22:28:25.140Z,10.67
2023-05-22T22:30:55.254Z,10.77
2023-05-22T22:33:25.613Z,10.84
2023-05-22T22:35:52.325Z,10.83
2023-05-22T22:38:19.216Z,10.77
2023-05-22T22:40:45.989Z,10.60
2023-05-22T22:43:12.836Z,10.74
2023-05-22T22:45:42.614Z,10.79
2023-05-22T22:48:09.486Z,10.78
2023-05-22T22:50:36.319Z,10.85
2023-05-22T22:53:03.081Z,10.80
2023-05-22T22:55:29.853Z,10.83
2023-05-22T22:57:56.784Z,10.79
2023-05-22T23:00:29.900Z,10.73
2023-05-22T23:02:56.844Z,10.57
2023-05-22T23:05:23.639Z,10.68
2023-05-22T23:07:50.388Z,10.63
2023-05-22T23:10:18.168Z,10.74
2023-05-22T23:12:44.943Z,10.75
2023-05-22T23:15:13.580Z,10.82
2023-05-22T23:17:42.218Z,10.48
2023-05-22T23:20:11.105Z,10.76
2023-05-22T23:22:37.911Z,10.73
2023-05-22T23:25:05.005Z,10.83
2023-05-22T23:27:31.898Z,10.88
2023-05-22T23:29:58.880Z,10.84
2023-05-22T23:32:25.635Z,10.95
2023-05-22T23:34:52.414Z,11.02
2023-05-22T23:37:19.136Z,11.02
2023-05-22T23:39:50.851Z,11.04
2023-05-22T23:42:17.820Z,11.04
2023-05-22T23:44:44.578Z,10.95
2023-05-22T23:47:12.757Z,10.84
2023-05-22T23:49:39.455Z,11.04
2023-05-22T23:52:06.960Z,11.01
2023-05-22T23:54:33.782Z,10.74
2023-05-22T23:57:00.644Z,10.76
2023-05-22T23:59:27.305Z,10.86
